createdAt,value
2022-11-10T00:02:54.571Z,86.80
2022-11-10T00:08:16.616Z,87.19
2022-11-10T00:14:01.279Z,87.56
2022-11-10T00:19:23.733Z,87.82
2022-11-10T00:24:45.924Z,88.11
2022-11-10T00:30:08.527Z,88.29
2022-11-10T00:35:30.622Z,87.87
2022-11-10T00:40:52.719Z,87.56
2022-11-10T00:46:15.213Z,86.69
2022-11-10T00:51:38.234Z,86.78
2022-11-10T00:57:00.564Z,86.74
2022-11-10T01:02:22.828Z,86.56
2022-11-10T01:07:45.151Z,87.59
2022-11-10T01:13:07.005Z,87.05
2022-11-10T01:18:29.152Z,86.69
2022-11-10T01:23:51.420Z,87.31
2022-11-10T01:29:13.796Z,87.03
2022-11-10T01:34:35.987Z,87.02
2022-11-10T01:39:58.308Z,87.38
2022-11-10T01:45:23.458Z,87.24
2022-11-10T01:50:47.445Z,87.70
2022-11-10T01:56:10.781Z,87.36
2022-11-10T02:01:32.797Z,87.38
2022-11-10T02:06:55.383Z,87.87
2022-11-10T02:12:37.127Z,88.11
2022-11-10T02:17:59.083Z,88.43
2022-11-10T02:23:37.203Z,88.72
2022-11-10T02:28:59.463Z,88.75
2022-11-10T02:34:21.596Z,89.02
2022-11-10T02:39:43.563Z,89.02
2022-11-10T02:45:05.939Z,89.07
2022-11-10T02:50:28.195Z,88.56
2022-11-10T02:55:50.297Z,88.83
2022-11-10T03:01:12.324Z,88.61
2022-11-10T03:06:41.434Z,88.58
2022-11-10T03:12:03.720Z,89.18
2022-11-10T03:17:26.156Z,89.18
2022-11-10T03:22:48.093Z,88.96
2022-11-10T03:28:11.350Z,89.61
2022-11-10T03:33:33.560Z,89.38
2022-11-10T03:38:55.706Z,89.29
2022-11-10T03:44:17.632Z,88.91
2022-11-10T03:49:39.806Z,88.85
2022-11-10T03:55:03.550Z,89.36
2022-11-10T04:00:25.912Z,89.91
2022-11-10T04:06:06.600Z,90.05
2022-11-10T04:11:49.074Z,90.12
2022-11-10T04:17:11.273Z,90.30
2022-11-10T04:22:52.060Z,90.38
2022-11-10T04:28:14.391Z,90.63
2022-11-10T04:33:40.060Z,90.72
2022-11-10T04:39:06.319Z,90.71
2022-11-10T04:44:30.813Z,90.56
2022-11-10T04:49:53.579Z,90.50
2022-11-10T04:55:16.529Z,90.54
2022-11-10T05:00:39.626Z,90.29
2022-11-10T05:06:01.621Z,90.38
2022-11-10T05:11:23.800Z,90.60
2022-11-10T05:16:46.138Z,90.92
2022-11-10T05:22:08.414Z,90.98
2022-11-10T05:27:30.385Z,91.15
2022-11-10T05:32:52.376Z,91.05
2022-11-10T05:38:14.478Z,90.70
2022-11-10T05:43:36.335Z,89.57
2022-11-10T05:48:58.480Z,89.68
2022-11-10T05:54:21.004Z,89.03
2022-11-10T05:59:43.098Z,89.49
2022-11-10T06:05:08.613Z,90.03
2022-11-10T06:10:31.109Z,90.40
2022-11-10T06:15:53.259Z,90.63
2022-11-10T06:21:15.704Z,90.85
2022-11-10T06:26:42.616Z,90.77
2022-11-10T06:32:05.334Z,90.74
2022-11-10T06:37:27.697Z,90.90
2022-11-10T06:42:53.338Z,90.98
2022-11-10T06:48:15.610Z,91.05
2022-11-10T06:53:37.983Z,90.99
2022-11-10T06:59:00.329Z,91.06
2022-11-10T07:04:22.646Z,91.15
2022-11-10T07:09:45.015Z,91.19
2022-11-10T07:15:07.868Z,91.31
2022-11-10T07:20:35.103Z,91.41
2022-11-10T07:25:59.733Z,91.51
2022-11-10T07:31:22.019Z,91.15
2022-11-10T07:36:44.293Z,89.82
2022-11-10T07:42:06.622Z,90.50
2022-11-10T07:47:28.894Z,89.26
2022-11-10T07:52:50.946Z,89.14
2022-11-10T07:58:15.330Z,89.40
2022-11-10T08:03:37.797Z,88.88
2022-11-10T08:08:59.726Z,88.77
2022-11-10T08:14:21.935Z,89.00
2022-11-10T08:19:44.567Z,88.99
2022-11-10T08:25:07.077Z,88.87
2022-11-10T08:30:30.019Z,88.75
2022-11-10T08:35:52.671Z,88.94
2022-11-10T08:41:16.166Z,88.32
2022-11-10T08:46:38.507Z,87.92
2022-11-10T08:52:01.385Z,87.81
2022-11-10T08:57:23.524Z,87.39
2022-11-10T09:02:45.976Z,87.07
2022-11-10T09:08:08.280Z,87.00
2022-11-10T09:13:31.243Z,86.70
2022-11-10T09:18:53.663Z,85.73
2022-11-10T09:24:15.708Z,85.13
2022-11-10T09:29:38.176Z,83.79
2022-11-10T09:35:02.393Z,83.24
2022-11-10T09:40:32.377Z,81.90
2022-11-10T09:45:57.010Z,81.48
2022-11-10T09:51:25.548Z,80.81
2022-11-10T09:56:47.615Z,79.59
2022-11-10T10:02:21.421Z,77.94
2022-11-10T10:08:02.164Z,78.28
2022-11-10T10:13:55.624Z,78.07
2022-11-10T10:19:21.449Z,76.91
2022-11-10T10:24:43.669Z,76.99
2022-11-10T10:30:17.102Z,75.79
2022-11-10T10:35:41.999Z,75.39
2022-11-10T10:41:17.181Z,74.80
2022-11-10T10:46:46.090Z,74.91
2022-11-10T10:52:13.759Z,74.58
2022-11-10T10:57:35.753Z,72.80
2022-11-10T11:03:07.065Z,73.22
2022-11-10T11:08:29.598Z,74.52
2022-11-10T11:13:52.076Z,74.64
2022-11-10T11:19:14.541Z,75.38
2022-11-10T11:25:00.423Z,74.97
2022-11-10T11:30:25.990Z,73.78
2022-11-10T11:36:23.158Z,73.63
2022-11-10T11:41:57.216Z,74.46
2022-11-10T11:47:58.559Z,74.77
2022-11-10T11:53:37.906Z,75.26
2022-11-10T11:59:58.109Z,75.56
2022-11-10T12:06:03.453Z,74.93
2022-11-10T12:11:44.688Z,75.38
2022-11-10T12:17:20.512Z,75.19
2022-11-10T12:22:53.863Z,74.06
2022-11-10T12:28:25.529Z,74.16
2022-11-10T12:33:52.160Z,73.92
2022-11-10T12:39:38.923Z,73.48
2022-11-10T12:45:05.402Z,73.47
2022-11-10T12:50:54.984Z,71.10
2022-11-10T12:56:32.067Z,70.43
2022-11-10T13:02:22.421Z,70.56
2022-11-10T13:07:48.174Z,71.06
2022-11-10T13:13:15.521Z,71.45
2022-11-10T13:18:37.564Z,70.38
2022-11-10T13:24:02.988Z,70.33
2022-11-10T13:29:58.060Z,70.82
2022-11-10T13:35:29.547Z,71.01
2022-11-10T13:40:55.421Z,71.59
2022-11-10T13:46:18.210Z,71.90
2022-11-10T13:51:51.754Z,71.94
2022-11-10T13:57:21.255Z,72.10
2022-11-10T14:03:02.665Z,72.07
2022-11-10T14:08:29.782Z,71.85
2022-11-10T14:14:03.590Z,71.77
2022-11-10T14:19:38.937Z,71.64
2022-11-10T14:25:19.945Z,71.71
2022-11-10T14:30:42.091Z,71.54
2022-11-10T14:36:06.655Z,71.91
2022-11-10T14:41:48.628Z,72.19
2022-11-10T14:47:31.481Z,72.69
2022-11-10T14:53:22.545Z,72.91
2022-11-10T14:59:01.958Z,73.19
2022-11-10T15:04:30.449Z,73.56
2022-11-10T15:10:16.128Z,73.98
2022-11-10T15:15:44.168Z,74.35
2022-11-10T15:21:11.195Z,74.85
2022-11-10T15:26:53.438Z,75.38
2022-11-10T15:32:22.218Z,75.76
2022-11-10T15:38:21.246Z,76.14
2022-11-10T15:43:48.138Z,77.12
2022-11-10T15:49:38.270Z,77.43
2022-11-10T15:55:00.597Z,77.82
2022-11-10T16:00:22.904Z,78.05
2022-11-10T16:05:45.777Z,78.17
2022-11-10T16:11:28.322Z,78.49
2022-11-10T16:16:50.791Z,79.01
2022-11-10T16:22:13.747Z,79.86
2022-11-10T16:27:36.574Z,80.61
2022-11-10T16:33:07.121Z,81.16
2022-11-10T16:38:45.128Z,81.31
2022-11-10T16:44:12.792Z,81.72
2022-11-10T16:49:38.109Z,81.53
2022-11-10T16:55:07.881Z,81.67
2022-11-10T17:00:33.932Z,81.49
2022-11-10T17:05:57.389Z,81.41
2022-11-10T17:11:19.553Z,81.56
2022-11-10T17:16:50.300Z,81.64
2022-11-10T17:22:22.300Z,81.40
2022-11-10T17:27:49.259Z,81.38
2022-11-10T17:33:18.844Z,82.03
2022-11-10T17:38:41.416Z,82.59
2022-11-10T17:44:05.910Z,82.51
2022-11-10T17:49:38.868Z,82.78
2022-11-10T17:55:10.751Z,83.30
2022-11-10T18:00:41.976Z,83.62
2022-11-10T18:06:12.092Z,83.88
2022-11-10T18:11:34.060Z,84.17
2022-11-10T18:16:58.735Z,84.28
2022-11-10T18:22:26.023Z,84.59
2022-11-10T18:27:57.384Z,84.87
2022-11-10T18:33:30.113Z,85.64
2022-11-10T18:38:56.534Z,85.49
2022-11-10T18:44:21.163Z,85.10
2022-11-10T18:49:46.651Z,84.92
2022-11-10T18:55:10.124Z,84.88
2022-11-10T19:00:37.679Z,85.22
2022-11-10T19:06:00.506Z,84.11
2022-11-10T19:11:22.946Z,84.09
2022-11-10T19:16:45.315Z,82.72
2022-11-10T19:22:09.932Z,83.62
2022-11-10T19:27:33.139Z,83.98
2022-11-10T19:32:55.570Z,84.39
2022-11-10T19:38:18.030Z,84.32
2022-11-10T19:43:47.768Z,83.94
2022-11-10T19:49:10.298Z,83.72
2022-11-10T19:54:32.950Z,83.67
2022-11-10T19:59:54.785Z,83.47
2022-11-10T20:05:34.518Z,83.59
2022-11-10T20:11:23.186Z,83.80
2022-11-10T20:16:48.609Z,83.88
2022-11-10T20:22:17.853Z,83.75
2022-11-10T20:27:40.225Z,83.57
2022-11-10T20:33:08.112Z,83.50
2022-11-10T20:38:31.203Z,83.66
2022-11-10T20:43:54.266Z,84.01
2022-11-10T20:49:18.083Z,84.26
2022-11-10T20:54:48.182Z,84.29
2022-11-10T21:00:12.427Z,84.15
2022-11-10T21:05:37.902Z,84.11
2022-11-10T21:11:06.397Z,84.34
2022-11-10T21:16:31.115Z,84.31
2022-11-10T21:21:54.907Z,84.18
2022-11-10T21:27:17.014Z,84.52
2022-11-10T21:32:48.488Z,84.80
2022-11-10T21:38:14.524Z,84.78
2022-11-10T21:43:39.858Z,85.08
2022-11-10T21:49:07.563Z,85.01
2022-11-10T21:54:31.466Z,84.78
2022-11-10T21:59:57.245Z,85.10
2022-11-10T22:05:19.366Z,85.66
2022-11-10T22:11:02.082Z,86.05
2022-11-10T22:16:48.712Z,86.58
2022-11-10T22:22:20.230Z,86.33
2022-11-10T22:27:49.237Z,86.11
2022-11-10T22:33:40.516Z,85.88
2022-11-10T22:39:22.806Z,85.72
2022-11-10T22:44:59.038Z,86.04
2022-11-10T22:50:44.841Z,86.60
2022-11-10T23:02:41.890Z,87.45
2022-11-10T23:08:17.021Z,88.51
2022-11-10T23:13:42.774Z,88.64
2022-11-10T23:19:05.795Z,88.79
2022-11-10T23:24:27.813Z,88.92
2022-11-10T23:29:56.833Z,88.96
2022-11-10T23:35:19.134Z,88.70
2022-11-10T23:40:45.570Z,88.56
2022-11-10T23:46:12.468Z,88.56
2022-11-10T23:51:34.499Z,88.65
2022-11-10T23:56:57.321Z,88.82
